sensor_id;sensor_type;location;lat;lon;timestamp;pressure;altitude;pressure_sealevel;temperature;humidity
55347;BME280;41218;55.700;38.270;2024-01-11T00:03:57;98111.59;;;-8.53;71.45
55347;BME280;41218;55.700;38.270;2024-01-11T00:08:57;98093.53;;;-8.48;71.55
55347;BME280;41218;55.700;38.270;2024-01-11T00:13:58;98078.41;;;-8.38;71.11
55347;BME280;41218;55.700;38.270;2024-01-11T00:18:58;98036.44;;;-8.43;71.64
55347;BME280;41218;55.700;38.270;2024-01-11T00:23:59;98040.75;;;-8.28;71.58
55347;BME280;41218;55.700;38.270;2024-01-11T00:28:59;98008.09;;;-8.30;71.81
55347;BME280;41218;55.700;38.270;2024-01-11T00:34:00;98001.81;;;-8.20;72.12
55347;BME280;41218;55.700;38.270;2024-01-11T00:39:00;97985.13;;;-8.17;71.42
55347;BME280;41218;55.700;38.270;2024-01-11T00:44:01;97947.03;;;-8.14;71.53
55347;BME280;41218;55.700;38.270;2024-01-11T00:49:01;97934.63;;;-8.10;71.34
55347;BME280;41218;55.700;38.270;2024-01-11T00:54:02;97915.78;;;-8.05;71.69
55347;BME280;41218;55.700;38.270;2024-01-11T00:59:03;97901.78;;;-8.02;71.86
55347;BME280;41218;55.700;38.270;2024-01-11T01:04:04;97867.31;;;-8.09;71.65
55347;BME280;41218;55.700;38.270;2024-01-11T01:09:04;97865.66;;;-7.91;71.92
55347;BME280;41218;55.700;38.270;2024-01-11T01:14:05;97837.53;;;-7.93;71.15
55347;BME280;41218;55.700;38.270;2024-01-11T01:19:05;97822.59;;;-7.80;71.54
55347;BME280;41218;55.700;38.270;2024-01-11T01:24:06;97807.56;;;-7.81;71.79
55347;BME280;41218;55.700;38.270;2024-01-11T01:29:07;97783.72;;;-7.69;71.30
55347;BME280;41218;55.700;38.270;2024-01-11T01:34:07;97754.84;;;-7.72;71.49
55347;BME280;41218;55.700;38.270;2024-01-11T01:39:08;97763.34;;;-7.56;71.95
55347;BME280;41218;55.700;38.270;2024-01-11T01:44:08;97747.94;;;-7.51;71.34
55347;BME280;41218;55.700;38.270;2024-01-11T01:49:08;97714.53;;;-7.45;71.60
55347;BME280;41218;55.700;38.270;2024-01-11T01:54:10;97707.66;;;-7.37;71.29
55347;BME280;41218;55.700;38.270;2024-01-11T01:59:11;97674.88;;;-7.34;72.10
55347;BME280;41218;55.700;38.270;2024-01-11T02:04:13;97666.09;;;-7.26;72.00
55347;BME280;41218;55.700;38.270;2024-01-11T02:09:17;97633.69;;;-7.29;72.49
55347;BME280;41218;55.700;38.270;2024-01-11T02:14:18;97638.84;;;-7.10;72.11
55347;BME280;41218;55.700;38.270;2024-01-11T02:19:19;97631.19;;;-7.03;72.55
55347;BME280;41218;55.700;38.270;2024-01-11T02:24:20;97602.88;;;-7.09;72.73
55347;BME280;41218;55.700;38.270;2024-01-11T02:29:21;97575.56;;;-7.02;72.19
55347;BME280;41218;55.700;38.270;2024-01-11T02:34:26;97588.13;;;-6.89;72.71
55347;BME280;41218;55.700;38.270;2024-01-11T02:39:27;97570.81;;;-6.74;72.75
55347;BME280;41218;55.700;38.270;2024-01-11T02:44:28;97553.16;;;-6.67;72.87
55347;BME280;41218;55.700;38.270;2024-01-11T02:49:29;97538.59;;;-6.66;73.00
55347;BME280;41218;55.700;38.270;2024-01-11T02:54:29;97499.84;;;-6.73;72.96
55347;BME280;41218;55.700;38.270;2024-01-11T02:59:31;97520.94;;;-6.49;73.06
55347;BME280;41218;55.700;38.270;2024-01-11T03:04:32;97483.78;;;-6.56;73.13
55347;BME280;41218;55.700;38.270;2024-01-11T03:09:32;97465.31;;;-6.49;73.33
55347;BME280;41218;55.700;38.270;2024-01-11T03:14:34;97442.22;;;-6.50;73.26
55347;BME280;41218;55.700;38.270;2024-01-11T03:19:39;97457.56;;;-6.33;73.37
55347;BME280;41218;55.700;38.270;2024-01-11T03:24:40;97452.97;;;-6.15;73.16
55347;BME280;41218;55.700;38.270;2024-01-11T03:29:41;97436.38;;;-6.08;73.84
55347;BME280;41218;55.700;38.270;2024-01-11T03:34:43;97415.00;;;-6.05;73.31
55347;BME280;41218;55.700;38.270;2024-01-11T03:39:43;97406.78;;;-5.99;73.38
55347;BME280;41218;55.700;38.270;2024-01-11T03:44:44;97397.38;;;-5.85;73.69
55347;BME280;41218;55.700;38.270;2024-01-11T03:49:44;97374.44;;;-5.82;73.40
55347;BME280;41218;55.700;38.270;2024-01-11T03:54:45;97378.53;;;-5.67;73.55
55347;BME280;41218;55.700;38.270;2024-01-11T03:59:46;97360.00;;;-5.69;73.64
55347;BME280;41218;55.700;38.270;2024-01-11T04:04:46;97368.03;;;-5.51;73.94
55347;BME280;41218;55.700;38.270;2024-01-11T04:09:47;97353.28;;;-5.45;73.64
55347;BME280;41218;55.700;38.270;2024-01-11T04:14:47;97333.31;;;-5.44;74.16
55347;BME280;41218;55.700;38.270;2024-01-11T04:19:48;97341.94;;;-5.30;73.90
55347;BME280;41218;55.700;38.270;2024-01-11T04:24:50;97328.31;;;-5.25;74.30
55347;BME280;41218;55.700;38.270;2024-01-11T04:29:50;97333.47;;;-5.11;73.84
55347;BME280;41218;55.700;38.270;2024-01-11T04:34:51;97290.13;;;-5.27;74.41
55347;BME280;41218;55.700;38.270;2024-01-11T04:39:51;97323.22;;;-4.96;74.02
55347;BME280;41218;55.700;38.270;2024-01-11T04:44:52;97308.56;;;-4.87;74.69
55347;BME280;41218;55.700;38.270;2024-01-11T04:49:52;97299.19;;;-4.80;74.36
55347;BME280;41218;55.700;38.270;2024-01-11T04:54:53;97290.44;;;-4.77;74.37
55347;BME280;41218;55.700;38.270;2024-01-11T04:59:56;97263.66;;;-4.83;74.37
55347;BME280;41218;55.700;38.270;2024-01-11T05:04:57;97282.06;;;-4.64;74.74
55347;BME280;41218;55.700;38.270;2024-01-11T05:09:58;97241.19;;;-4.87;74.89
55347;BME280;41218;55.700;38.270;2024-01-11T05:14:59;97261.19;;;-4.54;75.30
55347;BME280;41218;55.700;38.270;2024-01-11T05:20:00;97254.88;;;-4.37;75.45
55347;BME280;41218;55.700;38.270;2024-01-11T05:25:00;97226.00;;;-4.37;75.48
55347;BME280;41218;55.700;38.270;2024-01-11T05:30:03;97259.56;;;-4.01;75.61
55347;BME280;41218;55.700;38.270;2024-01-11T05:35:04;97235.06;;;-3.84;75.43
55347;BME280;41218;55.700;38.270;2024-01-11T05:40:05;97219.09;;;-3.76;75.37
55347;BME280;41218;55.700;38.270;2024-01-11T05:45:08;97228.53;;;-3.46;75.14
55347;BME280;41218;55.700;38.270;2024-01-11T05:50:09;97195.56;;;-3.51;75.67
55347;BME280;41218;55.700;38.270;2024-01-11T05:55:11;97211.59;;;-3.18;75.42
55347;BME280;41218;55.700;38.270;2024-01-11T06:00:11;97218.31;;;-2.99;75.41
55347;BME280;41218;55.700;38.270;2024-01-11T06:05:12;97185.19;;;-2.96;75.76
55347;BME280;41218;55.700;38.270;2024-01-11T06:10:14;97210.56;;;-2.73;75.59
55347;BME280;41218;55.700;38.270;2024-01-11T06:15:15;97194.16;;;-2.64;75.81
55347;BME280;41218;55.700;38.270;2024-01-11T06:20:15;97183.28;;;-2.52;76.46
55347;BME280;41218;55.700;38.270;2024-01-11T06:25:16;97182.44;;;-2.40;76.21
55347;BME280;41218;55.700;38.270;2024-01-11T06:30:17;97191.88;;;-2.18;75.94
55347;BME280;41218;55.700;38.270;2024-01-11T06:35:17;97184.47;;;-2.05;75.96
55347;BME280;41218;55.700;38.270;2024-01-11T06:40:18;97175.03;;;-1.95;75.71
55347;BME280;41218;55.700;38.270;2024-01-11T06:45:22;97171.09;;;-1.82;75.88
55347;BME280;41218;55.700;38.270;2024-01-11T06:50:23;97161.66;;;-1.72;75.59
55347;BME280;41218;55.700;38.270;2024-01-11T06:55:24;97158.03;;;-1.61;75.78
55347;BME280;41218;55.700;38.270;2024-01-11T07:00:25;97150.50;;;-1.51;75.88
55347;BME280;41218;55.700;38.270;2024-01-11T07:05:25;97148.81;;;-1.40;76.13
55347;BME280;41218;55.700;38.270;2024-01-11T07:10:26;97128.28;;;-1.41;76.48
55347;BME280;41218;55.700;38.270;2024-01-11T07:15:27;97135.50;;;-1.29;76.45
55347;BME280;41218;55.700;38.270;2024-01-11T07:20:29;97132.31;;;-1.15;76.33
55347;BME280;41218;55.700;38.270;2024-01-11T07:25:29;97110.25;;;-1.14;76.51
55347;BME280;41218;55.700;38.270;2024-01-11T07:30:30;97117.09;;;-1.01;76.60
55347;BME280;41218;55.700;38.270;2024-01-11T07:35:31;97124.06;;;-0.80;76.11
55347;BME280;41218;55.700;38.270;2024-01-11T07:40:33;97128.91;;;-0.70;76.44
55347;BME280;41218;55.700;38.270;2024-01-11T07:45:34;97101.22;;;-0.79;76.29
55347;BME280;41218;55.700;38.270;2024-01-11T07:50:34;97112.38;;;-0.61;76.49
55347;BME280;41218;55.700;38.270;2024-01-11T07:55:38;97111.00;;;-0.51;76.21
55347;BME280;41218;55.700;38.270;2024-01-11T08:00:39;97078.34;;;-0.58;76.19
55347;BME280;41218;55.700;38.270;2024-01-11T08:05:40;97085.13;;;-0.45;75.84
55347;BME280;41218;55.700;38.270;2024-01-11T08:10:40;97060.97;;;-0.54;76.22
55347;BME280;41218;55.700;38.270;2024-01-11T08:15:41;97081.53;;;-0.30;76.05
55347;BME280;41218;55.700;38.270;2024-01-11T08:20:42;97078.06;;;-0.27;76.28
55347;BME280;41218;55.700;38.270;2024-01-11T08:25:42;97066.97;;;-0.18;76.37
55347;BME280;41218;55.700;38.270;2024-01-11T08:30:43;97062.25;;;-0.21;76.40
55347;BME280;41218;55.700;38.270;2024-01-11T08:35:44;97063.63;;;-0.08;76.28
55347;BME280;41218;55.700;38.270;2024-01-11T08:40:46;97063.72;;;-0.01;76.04
55347;BME280;41218;55.700;38.270;2024-01-11T08:45:46;97052.88;;;-0.01;76.12
55347;BME280;41218;55.700;38.270;2024-01-11T08:50:47;97033.78;;;-0.08;76.14
55347;BME280;41218;55.700;38.270;2024-01-11T08:55:47;97050.97;;;0.00;75.90
55347;BME280;41218;55.700;38.270;2024-01-11T09:00:48;97062.19;;;-0.02;76.02
55347;BME280;41218;55.700;38.270;2024-01-11T09:05:49;97083.53;;;0.00;75.84
55347;BME280;41218;55.700;38.270;2024-01-11T09:10:49;97090.31;;;-0.13;75.46
55347;BME280;41218;55.700;38.270;2024-01-11T09:15:50;97058.41;;;-0.43;76.06
55347;BME280;41218;55.700;38.270;2024-01-11T09:20:50;97114.34;;;-0.38;75.60
55347;BME280;41218;55.700;38.270;2024-01-11T09:25:51;97119.16;;;-0.51;75.76
55347;BME280;41218;55.700;38.270;2024-01-11T09:30:52;97139.66;;;-0.54;75.49
55347;BME280;41218;55.700;38.270;2024-01-11T09:35:54;97170.16;;;-0.80;75.29
55347;BME280;41218;55.700;38.270;2024-01-11T09:41:09;97165.19;;;-1.17;74.55
55347;BME280;41218;55.700;38.270;2024-01-11T09:46:11;97177.88;;;-1.21;73.65
55347;BME280;41218;55.700;38.270;2024-01-11T09:51:13;97178.16;;;-1.62;74.00
55347;BME280;41218;55.700;38.270;2024-01-11T09:56:13;97186.63;;;-1.63;73.12
55347;BME280;41218;55.700;38.270;2024-01-11T10:01:14;97214.56;;;-1.59;73.10
55347;BME280;41218;55.700;38.270;2024-01-11T10:06:15;97216.59;;;-1.72;72.15
55347;BME280;41218;55.700;38.270;2024-01-11T10:11:17;97234.69;;;-1.76;72.07
55347;BME280;41218;55.700;38.270;2024-01-11T10:16:18;97240.53;;;-1.90;71.89
55347;BME280;41218;55.700;38.270;2024-01-11T10:21:18;97220.06;;;-2.19;71.97
55347;BME280;41218;55.700;38.270;2024-01-11T10:26:20;97253.63;;;-2.08;71.98
55347;BME280;41218;55.700;38.270;2024-01-11T10:31:21;97245.03;;;-2.26;71.27
55347;BME280;41218;55.700;38.270;2024-01-11T10:36:30;97274.03;;;-2.26;69.45
55347;BME280;41218;55.700;38.270;2024-01-11T10:41:41;97245.00;;;-2.70;69.92
55347;BME280;41218;55.700;38.270;2024-01-11T10:46:46;97286.00;;;-2.68;69.11
55347;BME280;41218;55.700;38.270;2024-01-11T10:51:58;97326.25;;;-2.78;67.68
55347;BME280;41218;55.700;38.270;2024-01-11T10:57:00;97335.88;;;-2.93;66.11
55347;BME280;41218;55.700;38.270;2024-01-11T11:02:04;97359.97;;;-3.25;65.19
55347;BME280;41218;55.700;38.270;2024-01-11T11:07:07;97343.50;;;-3.69;65.12
55347;BME280;41218;55.700;38.270;2024-01-11T11:12:08;97362.81;;;-3.79;64.15
55347;BME280;41218;55.700;38.270;2024-01-11T11:17:11;97379.25;;;-3.85;62.87
55347;BME280;41218;55.700;38.270;2024-01-11T11:22:12;97373.31;;;-4.11;62.21
55347;BME280;41218;55.700;38.270;2024-01-11T11:27:14;97390.81;;;-4.38;62.68
55347;BME280;41218;55.700;38.270;2024-01-11T11:32:17;97427.19;;;-4.45;63.45
55347;BME280;41218;55.700;38.270;2024-01-11T11:37:24;97437.03;;;-4.49;63.81
55347;BME280;41218;55.700;38.270;2024-01-11T11:42:25;97441.81;;;-4.75;64.17
55347;BME280;41218;55.700;38.270;2024-01-11T11:47:34;97498.69;;;-4.68;63.88
55347;BME280;41218;55.700;38.270;2024-01-11T11:52:36;97488.72;;;-5.06;64.10
55347;BME280;41218;55.700;38.270;2024-01-11T11:57:37;97532.19;;;-5.25;63.02
55347;BME280;41218;55.700;38.270;2024-01-11T12:02:38;97543.63;;;-5.63;63.54
55347;BME280;41218;55.700;38.270;2024-01-11T12:07:39;97520.84;;;-6.00;63.79
55347;BME280;41218;55.700;38.270;2024-01-11T12:12:40;97527.78;;;-6.34;63.17
55347;BME280;41218;55.700;38.270;2024-01-11T12:17:41;97585.63;;;-6.37;64.38
55347;BME280;41218;55.700;38.270;2024-01-11T12:22:42;97588.78;;;-6.43;64.68
55347;BME280;41218;55.700;38.270;2024-01-11T12:27:44;97573.91;;;-6.50;64.41
55347;BME280;41218;55.700;38.270;2024-01-11T12:32:45;97609.31;;;-6.56;63.85
55347;BME280;41218;55.700;38.270;2024-01-11T12:37:58;97613.09;;;-6.89;62.63
55347;BME280;41218;55.700;38.270;2024-01-11T12:42:59;97627.34;;;-7.11;63.12
55347;BME280;41218;55.700;38.270;2024-01-11T12:47:59;97638.66;;;-7.36;63.48
55347;BME280;41218;55.700;38.270;2024-01-11T12:53:14;97636.88;;;-7.63;63.83
55347;BME280;41218;55.700;38.270;2024-01-11T12:58:21;97626.25;;;-7.69;62.01
55347;BME280;41218;55.700;38.270;2024-01-11T13:03:22;97663.03;;;-7.69;61.62
55347;BME280;41218;55.700;38.270;2024-01-11T13:08:25;97671.13;;;-8.11;62.26
55347;BME280;41218;55.700;38.270;2024-01-11T13:13:27;97646.88;;;-8.33;62.84
55347;BME280;41218;55.700;38.270;2024-01-11T13:18:28;97674.72;;;-8.29;63.03
55347;BME280;41218;55.700;38.270;2024-01-11T13:23:29;97670.63;;;-8.54;62.35
55347;BME280;41218;55.700;38.270;2024-01-11T13:28:30;97704.94;;;-8.56;63.08
55347;BME280;41218;55.700;38.270;2024-01-11T13:33:31;97706.25;;;-8.54;63.04
55347;BME280;41218;55.700;38.270;2024-01-11T13:38:32;97700.28;;;-8.64;62.73
55347;BME280;41218;55.700;38.270;2024-01-11T13:43:32;97696.09;;;-8.71;62.29
55347;BME280;41218;55.700;38.270;2024-01-11T13:48:33;97702.06;;;-8.74;62.80
55347;BME280;41218;55.700;38.270;2024-01-11T13:53:33;97709.50;;;-8.71;63.07
55347;BME280;41218;55.700;38.270;2024-01-11T13:58:34;97717.81;;;-8.72;63.39
55347;BME280;41218;55.700;38.270;2024-01-11T14:03:34;97723.13;;;-8.53;62.99
55347;BME280;41218;55.700;38.270;2024-01-11T14:08:35;97732.41;;;-8.64;62.91
55347;BME280;41218;55.700;38.270;2024-01-11T14:13:36;97711.84;;;-8.83;63.08
55347;BME280;41218;55.700;38.270;2024-01-11T14:18:36;97731.13;;;-8.67;63.87
55347;BME280;41218;55.700;38.270;2024-01-11T14:23:37;97740.03;;;-8.72;63.81
55347;BME280;41218;55.700;38.270;2024-01-11T14:28:38;97730.63;;;-8.69;63.85
55347;BME280;41218;55.700;38.270;2024-01-11T14:33:42;97701.34;;;-8.79;64.31
55347;BME280;41218;55.700;38.270;2024-01-11T14:38:43;97710.66;;;-8.77;64.58
55347;BME280;41218;55.700;38.270;2024-01-11T14:43:44;97733.38;;;-8.74;64.45
55347;BME280;41218;55.700;38.270;2024-01-11T14:48:44;97742.41;;;-8.70;65.03
55347;BME280;41218;55.700;38.270;2024-01-11T14:53:45;97751.16;;;-8.64;65.21
55347;BME280;41218;55.700;38.270;2024-01-11T14:58:45;97746.69;;;-8.69;65.62
55347;BME280;41218;55.700;38.270;2024-01-11T15:03:45;97747.25;;;-8.72;65.22
55347;BME280;41218;55.700;38.270;2024-01-11T15:08:46;97762.03;;;-8.75;65.43
55347;BME280;41218;55.700;38.270;2024-01-11T15:13:47;97767.28;;;-8.83;65.65
55347;BME280;41218;55.700;38.270;2024-01-11T15:18:47;97772.13;;;-8.85;65.87
55347;BME280;41218;55.700;38.270;2024-01-11T15:23:48;97779.00;;;-8.79;65.87
55347;BME280;41218;55.700;38.270;2024-01-11T15:28:48;97781.34;;;-8.78;66.18
55347;BME280;41218;55.700;38.270;2024-01-11T15:33:49;97757.56;;;-8.98;66.18
55347;BME280;41218;55.700;38.270;2024-01-11T15:38:49;97784.50;;;-8.90;66.18
55347;BME280;41218;55.700;38.270;2024-01-11T15:43:50;97790.44;;;-8.93;66.38
55347;BME280;41218;55.700;38.270;2024-01-11T15:48:51;97795.22;;;-8.90;66.26
55347;BME280;41218;55.700;38.270;2024-01-11T15:53:51;97784.00;;;-9.11;66.32
55347;BME280;41218;55.700;38.270;2024-01-11T15:58:52;97804.19;;;-8.99;66.44
55347;BME280;41218;55.700;38.270;2024-01-11T16:03:52;97810.03;;;-8.97;66.51
55347;BME280;41218;55.700;38.270;2024-01-11T16:08:53;97807.78;;;-9.09;66.19
55347;BME280;41218;55.700;38.270;2024-01-11T16:13:54;97828.13;;;-9.08;66.34
55347;BME280;41218;55.700;38.270;2024-01-11T16:18:54;97834.19;;;-9.02;66.11
55347;BME280;41218;55.700;38.270;2024-01-11T16:23:55;97838.03;;;-9.09;66.42
55347;BME280;41218;55.700;38.270;2024-01-11T16:28:58;97830.00;;;-9.09;66.35
55347;BME280;41218;55.700;38.270;2024-01-11T16:33:58;97845.03;;;-9.13;65.92
55347;BME280;41218;55.700;38.270;2024-01-11T16:38:59;97868.72;;;-9.01;65.88
55347;BME280;41218;55.700;38.270;2024-01-11T16:44:04;97828.28;;;-9.18;66.00
55347;BME280;41218;55.700;38.270;2024-01-11T16:49:04;97870.88;;;-9.03;66.58
55347;BME280;41218;55.700;38.270;2024-01-11T16:54:05;97869.72;;;-8.97;65.92
55347;BME280;41218;55.700;38.270;2024-01-11T16:59:06;97876.88;;;-8.92;66.44
55347;BME280;41218;55.700;38.270;2024-01-11T17:04:07;97880.53;;;-9.02;66.62
55347;BME280;41218;55.700;38.270;2024-01-11T17:09:08;97883.59;;;-9.14;67.12
55347;BME280;41218;55.700;38.270;2024-01-11T17:14:08;97904.66;;;-9.07;67.21
55347;BME280;41218;55.700;38.270;2024-01-11T17:19:09;97910.59;;;-9.10;67.18
55347;BME280;41218;55.700;38.270;2024-01-11T17:24:09;97924.50;;;-9.08;66.96
55347;BME280;41218;55.700;38.270;2024-01-11T17:29:10;97927.69;;;-9.06;67.03
55347;BME280;41218;55.700;38.270;2024-01-11T17:34:10;97957.75;;;-9.14;67.05
55347;BME280;41218;55.700;38.270;2024-01-11T17:39:11;97959.41;;;-9.18;66.71
55347;BME280;41218;55.700;38.270;2024-01-11T17:44:12;97997.59;;;-9.13;66.01
55347;BME280;41218;55.700;38.270;2024-01-11T17:49:12;97994.06;;;-9.32;66.41
55347;BME280;41218;55.700;38.270;2024-01-11T17:54:13;98000.06;;;-9.45;66.87
55347;BME280;41218;55.700;38.270;2024-01-11T17:59:14;98044.41;;;-9.39;66.97
55347;BME280;41218;55.700;38.270;2024-01-11T18:04:15;98025.91;;;-9.65;67.06
55347;BME280;41218;55.700;38.270;2024-01-11T18:09:16;98026.50;;;-9.73;66.00
55347;BME280;41218;55.700;38.270;2024-01-11T18:14:16;98037.97;;;-9.68;63.92
55347;BME280;41218;55.700;38.270;2024-01-11T18:19:17;98055.78;;;-9.92;64.91
55347;BME280;41218;55.700;38.270;2024-01-11T18:24:18;98055.31;;;-9.99;64.80
55347;BME280;41218;55.700;38.270;2024-01-11T18:29:19;98086.56;;;-10.00;63.88
55347;BME280;41218;55.700;38.270;2024-01-11T18:34:23;98074.03;;;-9.99;62.62
55347;BME280;41218;55.700;38.270;2024-01-11T18:39:24;98040.91;;;-10.48;63.69
55347;BME280;41218;55.700;38.270;2024-01-11T18:44:25;98090.91;;;-10.14;62.19
55347;BME280;41218;55.700;38.270;2024-01-11T18:49:26;98111.81;;;-10.21;62.15
55347;BME280;41218;55.700;38.270;2024-01-11T18:54:26;98119.91;;;-10.32;62.56
55347;BME280;41218;55.700;38.270;2024-01-11T18:59:27;98126.34;;;-10.38;62.65
55347;BME280;41218;55.700;38.270;2024-01-11T19:04:29;98138.09;;;-10.44;63.20
55347;BME280;41218;55.700;38.270;2024-01-11T19:09:29;98140.25;;;-10.56;63.46
55347;BME280;41218;55.700;38.270;2024-01-11T19:14:30;98145.59;;;-10.56;63.60
55347;BME280;41218;55.700;38.270;2024-01-11T19:19:31;98165.88;;;-10.40;63.93
55347;BME280;41218;55.700;38.270;2024-01-11T19:24:34;98171.50;;;-10.52;64.52
55347;BME280;41218;55.700;38.270;2024-01-11T19:29:35;98176.81;;;-10.46;64.54
55347;BME280;41218;55.700;38.270;2024-01-11T19:34:36;98160.03;;;-10.57;64.11
55347;BME280;41218;55.700;38.270;2024-01-11T19:39:38;98176.03;;;-10.47;63.20
55347;BME280;41218;55.700;38.270;2024-01-11T19:44:39;98187.25;;;-10.45;63.05
55347;BME280;41218;55.700;38.270;2024-01-11T19:49:39;98185.69;;;-10.72;63.48
55347;BME280;41218;55.700;38.270;2024-01-11T19:54:41;98197.97;;;-10.65;63.91
55347;BME280;41218;55.700;38.270;2024-01-11T19:59:42;98183.28;;;-10.63;63.26
55347;BME280;41218;55.700;38.270;2024-01-11T20:04:43;98206.50;;;-10.63;63.42
55347;BME280;41218;55.700;38.270;2024-01-11T20:09:46;98220.91;;;-10.64;63.14
55347;BME280;41218;55.700;38.270;2024-01-11T20:14:47;98212.88;;;-10.54;62.80
55347;BME280;41218;55.700;38.270;2024-01-11T20:19:47;98229.19;;;-10.61;62.97
55347;BME280;41218;55.700;38.270;2024-01-11T20:24:51;98222.53;;;-10.74;62.86
55347;BME280;41218;55.700;38.270;2024-01-11T20:29:51;98208.94;;;-10.93;63.34
55347;BME280;41218;55.700;38.270;2024-01-11T20:34:52;98230.28;;;-10.93;64.00
55347;BME280;41218;55.700;38.270;2024-01-11T20:39:54;98241.22;;;-10.89;63.65
55347;BME280;41218;55.700;38.270;2024-01-11T20:44:55;98245.22;;;-10.92;63.55
55347;BME280;41218;55.700;38.270;2024-01-11T20:49:55;98231.06;;;-11.07;63.40
55347;BME280;41218;55.700;38.270;2024-01-11T20:54:56;98225.44;;;-11.11;63.45
55347;BME280;41218;55.700;38.270;2024-01-11T20:59:56;98230.81;;;-11.16;63.55
55347;BME280;41218;55.700;38.270;2024-01-11T21:04:57;98260.16;;;-10.96;64.40
55347;BME280;41218;55.700;38.270;2024-01-11T21:09:58;98251.06;;;-10.95;63.96
55347;BME280;41218;55.700;38.270;2024-01-11T21:14:59;98246.28;;;-10.88;63.99
55347;BME280;41218;55.700;38.270;2024-01-11T21:19:59;98271.94;;;-10.76;64.25
55347;BME280;41218;55.700;38.270;2024-01-11T21:25:00;98265.22;;;-10.79;63.48
55347;BME280;41218;55.700;38.270;2024-01-11T21:30:00;98249.50;;;-10.85;63.36
55347;BME280;41218;55.700;38.270;2024-01-11T21:35:01;98280.72;;;-10.71;62.95
55347;BME280;41218;55.700;38.270;2024-01-11T21:40:02;98276.72;;;-10.73;62.31
55347;BME280;41218;55.700;38.270;2024-01-11T21:45:05;98298.06;;;-10.83;62.52
55347;BME280;41218;55.700;38.270;2024-01-11T21:50:06;98291.13;;;-11.00;62.21
55347;BME280;41218;55.700;38.270;2024-01-11T21:55:07;98300.72;;;-11.04;62.02
55347;BME280;41218;55.700;38.270;2024-01-11T22:00:08;98349.28;;;-11.02;61.19
55347;BME280;41218;55.700;38.270;2024-01-11T22:05:08;98326.03;;;-11.22;61.69
55347;BME280;41218;55.700;38.270;2024-01-11T22:10:09;98336.94;;;-11.23;62.10
55347;BME280;41218;55.700;38.270;2024-01-11T22:15:09;98365.47;;;-11.34;62.24
55347;BME280;41218;55.700;38.270;2024-01-11T22:20:11;98362.22;;;-11.46;61.59
55347;BME280;41218;55.700;38.270;2024-01-11T22:25:12;98399.28;;;-11.45;61.12
55347;BME280;41218;55.700;38.270;2024-01-11T22:30:12;98373.47;;;-11.87;60.54
55347;BME280;41218;55.700;38.270;2024-01-11T22:35:14;98413.53;;;-11.72;59.39
55347;BME280;41218;55.700;38.270;2024-01-11T22:40:14;98411.91;;;-12.15;59.57
55347;BME280;41218;55.700;38.270;2024-01-11T22:45:15;98442.19;;;-12.26;59.01
55347;BME280;41218;55.700;38.270;2024-01-11T22:50:15;98431.34;;;-12.47;58.68
55347;BME280;41218;55.700;38.270;2024-01-11T22:55:16;98423.38;;;-12.74;58.78
55347;BME280;41218;55.700;38.270;2024-01-11T23:00:17;98451.22;;;-12.82;58.81
55347;BME280;41218;55.700;38.270;2024-01-11T23:05:21;98449.19;;;-12.97;59.89
55347;BME280;41218;55.700;38.270;2024-01-11T23:10:21;98458.38;;;-13.09;59.97
55347;BME280;41218;55.700;38.270;2024-01-11T23:15:23;98462.06;;;-12.88;59.77
55347;BME280;41218;55.700;38.270;2024-01-11T23:20:24;98507.06;;;-12.87;59.78
55347;BME280;41218;55.700;38.270;2024-01-11T23:25:25;98454.28;;;-13.39;58.81
55347;BME280;41218;55.700;38.270;2024-01-11T23:30:25;98468.75;;;-13.52;59.51
55347;BME280;41218;55.700;38.270;2024-01-11T23:35:27;98514.88;;;-13.41;59.42
55347;BME280;41218;55.700;38.270;2024-01-11T23:40:27;98519.88;;;-13.45;58.96
55347;BME280;41218;55.700;38.270;2024-01-11T23:45:28;98544.75;;;-13.51;58.50
55347;BME280;41218;55.700;38.270;2024-01-11T23:50:28;98545.47;;;-13.73;58.65
55347;BME280;41218;55.700;38.270;2024-01-11T23:55:29;98547.84;;;-13.76;58.78
